sensor_id;sensor_type;location;lat;lon;timestamp;P1;durP1;ratioP1;P2;durP2;ratioP2
23567;SDS011;11962;50.838;4.430;2022-10-19T00:00:27;15.02;;;4.72;;
23567;SDS011;11962;50.838;4.430;2022-10-19T00:03:08;11.43;;;4.18;;
23567;SDS011;11962;50.838;4.430;2022-10-19T00:05:33;13.15;;;4.18;;
23567;SDS011;11962;50.838;4.430;2022-10-19T00:07:59;17.13;;;4.95;;
23567;SDS011;11962;50.838;4.430;2022-10-19T00:10:25;12.60;;;4.90;;
23567;SDS011;11962;50.838;4.430;2022-10-19T00:12:51;8.70;;;3.95;;
23567;SDS011;11962;50.838;4.430;2022-10-19T00:15:17;12.45;;;3.95;;
23567;SDS011;11962;50.838;4.430;2022-10-19T00:20:40;11.15;;;3.80;;
23567;SDS011;11962;50.838;4.430;2022-10-19T00:23:05;9.57;;;4.10;;
23567;SDS011;11962;50.838;4.430;2022-10-19T00:25:31;10.45;;;3.95;;
23567;SDS011;11962;50.838;4.430;2022-10-19T00:27:57;8.82;;;3.90;;
23567;SDS011;11962;50.838;4.430;2022-10-19T00:30:22;12.43;;;4.10;;
23567;SDS011;11962;50.838;4.430;2022-10-19T00:32:48;10.93;;;4.18;;
23567;SDS011;11962;50.838;4.430;2022-10-19T00:35:13;14.50;;;4.30;;
23567;SDS011;11962;50.838;4.430;2022-10-19T00:37:39;12.90;;;4.13;;
23567;SDS011;11962;50.838;4.430;2022-10-19T00:40:05;14.23;;;4.32;;
23567;SDS011;11962;50.838;4.430;2022-10-19T00:42:31;9.85;;;3.70;;
23567;SDS011;11962;50.838;4.430;2022-10-19T00:44:58;8.75;;;3.70;;
23567;SDS011;11962;50.838;4.430;2022-10-19T00:47:39;13.73;;;4.65;;
23567;SDS011;11962;50.838;4.430;2022-10-19T00:50:05;9.27;;;3.80;;
23567;SDS011;11962;50.838;4.430;2022-10-19T00:52:32;13.18;;;3.97;;
23567;SDS011;11962;50.838;4.430;2022-10-19T00:54:58;14.80;;;4.43;;
23567;SDS011;11962;50.838;4.430;2022-10-19T00:57:25;13.65;;;3.67;;
23567;SDS011;11962;50.838;4.430;2022-10-19T00:59:53;13.95;;;3.85;;
23567;SDS011;11962;50.838;4.430;2022-10-19T01:02:20;12.13;;;4.25;;
23567;SDS011;11962;50.838;4.430;2022-10-19T01:04:46;11.60;;;3.60;;
23567;SDS011;11962;50.838;4.430;2022-10-19T01:07:15;11.10;;;3.55;;
23567;SDS011;11962;50.838;4.430;2022-10-19T01:09:42;9.70;;;4.18;;
23567;SDS011;11962;50.838;4.430;2022-10-19T01:23:06;15.82;;;3.65;;
23567;SDS011;11962;50.838;4.430;2022-10-19T01:28:56;9.43;;;3.78;;
23567;SDS011;11962;50.838;4.430;2022-10-19T01:44:59;15.60;;;3.75;;
23567;SDS011;11962;50.838;4.430;2022-10-19T01:47:34;14.02;;;4.05;;
23567;SDS011;11962;50.838;4.430;2022-10-19T01:50:08;10.63;;;4.07;;
23567;SDS011;11962;50.838;4.430;2022-10-19T01:52:43;16.92;;;4.32;;
23567;SDS011;11962;50.838;4.430;2022-10-19T01:55:10;14.38;;;3.85;;
23567;SDS011;11962;50.838;4.430;2022-10-19T01:57:41;12.65;;;4.22;;
23567;SDS011;11962;50.838;4.430;2022-10-19T02:00:16;11.73;;;4.43;;
23567;SDS011;11962;50.838;4.430;2022-10-19T02:09:19;13.60;;;4.13;;
23567;SDS011;11962;50.838;4.430;2022-10-19T02:11:46;10.60;;;3.92;;
23567;SDS011;11962;50.838;4.430;2022-10-19T02:14:21;16.70;;;4.30;;
23567;SDS011;11962;50.838;4.430;2022-10-19T02:16:53;16.05;;;4.47;;
23567;SDS011;11962;50.838;4.430;2022-10-19T02:19:41;13.27;;;4.57;;
23567;SDS011;11962;50.838;4.430;2022-10-19T02:22:08;12.50;;;4.43;;
23567;SDS011;11962;50.838;4.430;2022-10-19T02:24:34;13.75;;;4.45;;
23567;SDS011;11962;50.838;4.430;2022-10-19T02:27:00;11.07;;;4.70;;
23567;SDS011;11962;50.838;4.430;2022-10-19T02:29:28;17.45;;;4.50;;
23567;SDS011;11962;50.838;4.430;2022-10-19T02:31:55;11.68;;;4.35;;
23567;SDS011;11962;50.838;4.430;2022-10-19T02:34:24;15.52;;;5.20;;
23567;SDS011;11962;50.838;4.430;2022-10-19T02:36:49;14.65;;;4.50;;
23567;SDS011;11962;50.838;4.430;2022-10-19T02:39:15;12.65;;;5.38;;
23567;SDS011;11962;50.838;4.430;2022-10-19T02:41:43;17.58;;;5.00;;
23567;SDS011;11962;50.838;4.430;2022-10-19T02:44:22;13.48;;;5.07;;
23567;SDS011;11962;50.838;4.430;2022-10-19T02:46:55;12.98;;;5.75;;
23567;SDS011;11962;50.838;4.430;2022-10-19T02:49:35;15.93;;;5.40;;
23567;SDS011;11962;50.838;4.430;2022-10-19T02:52:02;15.70;;;6.05;;
23567;SDS011;11962;50.838;4.430;2022-10-19T02:54:30;16.08;;;5.57;;
23567;SDS011;11962;50.838;4.430;2022-10-19T02:56:56;16.80;;;6.03;;
23567;SDS011;11962;50.838;4.430;2022-10-19T02:59:22;16.73;;;5.07;;
23567;SDS011;11962;50.838;4.430;2022-10-19T03:01:48;12.90;;;5.78;;
23567;SDS011;11962;50.838;4.430;2022-10-19T03:07:35;10.13;;;5.28;;
23567;SDS011;11962;50.838;4.430;2022-10-19T03:10:01;12.40;;;5.25;;
23567;SDS011;11962;50.838;4.430;2022-10-19T03:12:26;16.48;;;6.10;;
23567;SDS011;11962;50.838;4.430;2022-10-19T03:14:52;15.32;;;5.97;;
23567;SDS011;11962;50.838;4.430;2022-10-19T03:17:17;19.88;;;5.65;;
23567;SDS011;11962;50.838;4.430;2022-10-19T03:19:58;24.17;;;6.82;;
23567;SDS011;11962;50.838;4.430;2022-10-19T03:22:24;13.45;;;5.57;;
23567;SDS011;11962;50.838;4.430;2022-10-19T03:24:50;13.73;;;5.55;;
23567;SDS011;11962;50.838;4.430;2022-10-19T03:27:15;13.23;;;5.13;;
23567;SDS011;11962;50.838;4.430;2022-10-19T03:29:41;14.60;;;5.40;;
23567;SDS011;11962;50.838;4.430;2022-10-19T03:32:06;17.38;;;5.78;;
23567;SDS011;11962;50.838;4.430;2022-10-19T03:37:37;14.95;;;6.03;;
23567;SDS011;11962;50.838;4.430;2022-10-19T03:40:02;19.65;;;5.97;;
23567;SDS011;11962;50.838;4.430;2022-10-19T03:42:28;23.90;;;6.20;;
23567;SDS011;11962;50.838;4.430;2022-10-19T03:44:54;14.50;;;5.55;;
23567;SDS011;11962;50.838;4.430;2022-10-19T03:47:19;20.40;;;6.20;;
23567;SDS011;11962;50.838;4.430;2022-10-19T03:49:45;15.25;;;6.18;;
23567;SDS011;11962;50.838;4.430;2022-10-19T03:52:11;14.07;;;5.95;;
23567;SDS011;11962;50.838;4.430;2022-10-19T03:54:36;18.13;;;6.47;;
23567;SDS011;11962;50.838;4.430;2022-10-19T03:57:02;15.25;;;6.07;;
23567;SDS011;11962;50.838;4.430;2022-10-19T03:59:28;18.20;;;6.60;;
23567;SDS011;11962;50.838;4.430;2022-10-19T04:01:53;14.45;;;6.07;;
23567;SDS011;11962;50.838;4.430;2022-10-19T04:07:06;19.07;;;7.17;;
23567;SDS011;11962;50.838;4.430;2022-10-19T04:09:32;17.67;;;6.35;;
23567;SDS011;11962;50.838;4.430;2022-10-19T04:11:58;19.48;;;6.85;;
23567;SDS011;11962;50.838;4.430;2022-10-19T04:14:23;17.42;;;6.47;;
23567;SDS011;11962;50.838;4.430;2022-10-19T04:16:49;19.23;;;7.50;;
23567;SDS011;11962;50.838;4.430;2022-10-19T04:19:27;16.88;;;6.53;;
23567;SDS011;11962;50.838;4.430;2022-10-19T04:21:53;15.98;;;6.97;;
23567;SDS011;11962;50.838;4.430;2022-10-19T04:24:19;17.83;;;6.95;;
23567;SDS011;11962;50.838;4.430;2022-10-19T04:26:45;18.27;;;6.78;;
23567;SDS011;11962;50.838;4.430;2022-10-19T04:29:16;17.17;;;6.95;;
23567;SDS011;11962;50.838;4.430;2022-10-19T04:31:44;21.33;;;7.25;;
23567;SDS011;11962;50.838;4.430;2022-10-19T04:34:10;20.10;;;7.40;;
23567;SDS011;11962;50.838;4.430;2022-10-19T04:36:36;17.88;;;6.50;;
23567;SDS011;11962;50.838;4.430;2022-10-19T04:39:03;17.52;;;7.22;;
23567;SDS011;11962;50.838;4.430;2022-10-19T04:41:29;22.02;;;7.22;;
23567;SDS011;11962;50.838;4.430;2022-10-19T04:43:56;21.77;;;7.60;;
23567;SDS011;11962;50.838;4.430;2022-10-19T04:46:23;17.67;;;7.20;;
23567;SDS011;11962;50.838;4.430;2022-10-19T04:48:50;18.98;;;7.47;;
23567;SDS011;11962;50.838;4.430;2022-10-19T04:54:19;17.25;;;7.15;;
23567;SDS011;11962;50.838;4.430;2022-10-19T04:56:45;18.42;;;7.63;;
23567;SDS011;11962;50.838;4.430;2022-10-19T04:59:11;19.60;;;8.00;;
23567;SDS011;11962;50.838;4.430;2022-10-19T05:01:36;18.55;;;8.02;;
23567;SDS011;11962;50.838;4.430;2022-10-19T05:04:02;24.75;;;7.35;;
23567;SDS011;11962;50.838;4.430;2022-10-19T05:06:29;20.75;;;8.27;;
23567;SDS011;11962;50.838;4.430;2022-10-19T05:08:56;18.90;;;7.50;;
23567;SDS011;11962;50.838;4.430;2022-10-19T05:11:22;17.00;;;7.53;;
23567;SDS011;11962;50.838;4.430;2022-10-19T05:13:48;20.98;;;7.70;;
23567;SDS011;11962;50.838;4.430;2022-10-19T05:16:15;15.05;;;7.35;;
23567;SDS011;11962;50.838;4.430;2022-10-19T05:21:15;17.15;;;7.47;;
23567;SDS011;11962;50.838;4.430;2022-10-19T05:23:42;17.55;;;8.20;;
23567;SDS011;11962;50.838;4.430;2022-10-19T05:26:10;17.08;;;7.78;;
23567;SDS011;11962;50.838;4.430;2022-10-19T05:28:41;16.55;;;7.97;;
23567;SDS011;11962;50.838;4.430;2022-10-19T05:31:08;20.85;;;8.73;;
23567;SDS011;11962;50.838;4.430;2022-10-19T05:33:36;26.15;;;9.52;;
23567;SDS011;11962;50.838;4.430;2022-10-19T05:39:30;20.90;;;8.75;;
23567;SDS011;11962;50.838;4.430;2022-10-19T05:41:55;22.60;;;8.60;;
23567;SDS011;11962;50.838;4.430;2022-10-19T05:44:21;29.85;;;9.02;;
23567;SDS011;11962;50.838;4.430;2022-10-19T05:46:48;19.77;;;9.13;;
23567;SDS011;11962;50.838;4.430;2022-10-19T05:49:15;25.45;;;8.30;;
23567;SDS011;11962;50.838;4.430;2022-10-19T05:51:42;20.35;;;8.75;;
23567;SDS011;11962;50.838;4.430;2022-10-19T05:54:09;18.67;;;8.68;;
23567;SDS011;11962;50.838;4.430;2022-10-19T05:56:35;18.45;;;8.88;;
23567;SDS011;11962;50.838;4.430;2022-10-19T05:59:03;25.20;;;8.30;;
23567;SDS011;11962;50.838;4.430;2022-10-19T06:03:57;22.65;;;8.88;;
23567;SDS011;11962;50.838;4.430;2022-10-19T06:09:08;24.60;;;8.80;;
23567;SDS011;11962;50.838;4.430;2022-10-19T06:11:35;23.60;;;8.88;;
23567;SDS011;11962;50.838;4.430;2022-10-19T06:14:05;26.85;;;9.23;;
23567;SDS011;11962;50.838;4.430;2022-10-19T06:16:33;23.42;;;9.30;;
23567;SDS011;11962;50.838;4.430;2022-10-19T06:18:58;21.50;;;8.63;;
23567;SDS011;11962;50.838;4.430;2022-10-19T06:21:26;17.70;;;8.18;;
23567;SDS011;11962;50.838;4.430;2022-10-19T06:23:57;18.60;;;8.30;;
23567;SDS011;11962;50.838;4.430;2022-10-19T06:26:25;21.27;;;9.50;;
23567;SDS011;11962;50.838;4.430;2022-10-19T06:28:53;19.52;;;8.68;;
23567;SDS011;11962;50.838;4.430;2022-10-19T06:31:20;21.88;;;9.10;;
23567;SDS011;11962;50.838;4.430;2022-10-19T06:33:46;27.67;;;9.82;;
23567;SDS011;11962;50.838;4.430;2022-10-19T06:36:13;18.27;;;8.43;;
23567;SDS011;11962;50.838;4.430;2022-10-19T06:38:40;23.90;;;9.40;;
23567;SDS011;11962;50.838;4.430;2022-10-19T06:41:06;23.75;;;8.73;;
23567;SDS011;11962;50.838;4.430;2022-10-19T06:43:33;16.73;;;8.82;;
23567;SDS011;11962;50.838;4.430;2022-10-19T06:46:02;21.70;;;8.25;;
23567;SDS011;11962;50.838;4.430;2022-10-19T06:48:29;22.92;;;9.73;;
23567;SDS011;11962;50.838;4.430;2022-10-19T06:51:07;22.23;;;9.60;;
23567;SDS011;11962;50.838;4.430;2022-10-19T06:53:33;27.42;;;9.48;;
23567;SDS011;11962;50.838;4.430;2022-10-19T06:56:00;28.48;;;9.30;;
23567;SDS011;11962;50.838;4.430;2022-10-19T06:58:28;21.80;;;9.10;;
23567;SDS011;11962;50.838;4.430;2022-10-19T07:00:58;25.60;;;9.43;;
23567;SDS011;11962;50.838;4.430;2022-10-19T07:03:26;21.58;;;8.93;;
23567;SDS011;11962;50.838;4.430;2022-10-19T07:08:53;18.98;;;9.98;;
23567;SDS011;11962;50.838;4.430;2022-10-19T07:11:19;24.60;;;9.75;;
23567;SDS011;11962;50.838;4.430;2022-10-19T07:13:46;19.02;;;8.63;;
23567;SDS011;11962;50.838;4.430;2022-10-19T07:16:13;20.33;;;9.60;;
23567;SDS011;11962;50.838;4.430;2022-10-19T07:18:40;27.20;;;9.77;;
23567;SDS011;11962;50.838;4.430;2022-10-19T07:21:08;19.10;;;9.20;;
23567;SDS011;11962;50.838;4.430;2022-10-19T07:23:35;20.67;;;8.65;;
23567;SDS011;11962;50.838;4.430;2022-10-19T07:26:10;21.40;;;9.20;;
23567;SDS011;11962;50.838;4.430;2022-10-19T07:28:37;18.20;;;8.95;;
23567;SDS011;11962;50.838;4.430;2022-10-19T07:31:08;30.92;;;9.75;;
23567;SDS011;11962;50.838;4.430;2022-10-19T07:33:36;24.23;;;9.13;;
23567;SDS011;11962;50.838;4.430;2022-10-19T07:36:21;23.15;;;9.70;;
23567;SDS011;11962;50.838;4.430;2022-10-19T07:38:48;20.70;;;8.85;;
23567;SDS011;11962;50.838;4.430;2022-10-19T07:41:14;22.42;;;9.90;;
23567;SDS011;11962;50.838;4.430;2022-10-19T07:43:42;17.42;;;9.25;;
23567;SDS011;11962;50.838;4.430;2022-10-19T07:46:10;16.60;;;8.63;;
23567;SDS011;11962;50.838;4.430;2022-10-19T07:48:38;23.48;;;8.68;;
23567;SDS011;11962;50.838;4.430;2022-10-19T07:51:04;22.15;;;8.98;;
23567;SDS011;11962;50.838;4.430;2022-10-19T07:53:41;17.43;;;8.20;;
23567;SDS011;11962;50.838;4.430;2022-10-19T07:56:08;18.20;;;9.27;;
23567;SDS011;11962;50.838;4.430;2022-10-19T07:58:38;15.48;;;8.68;;
23567;SDS011;11962;50.838;4.430;2022-10-19T08:01:12;26.13;;;9.02;;
23567;SDS011;11962;50.838;4.430;2022-10-19T08:03:39;21.50;;;8.55;;
23567;SDS011;11962;50.838;4.430;2022-10-19T08:06:07;18.88;;;9.13;;
23567;SDS011;11962;50.838;4.430;2022-10-19T08:08:45;21.33;;;9.23;;
23567;SDS011;11962;50.838;4.430;2022-10-19T08:11:15;21.85;;;9.48;;
23567;SDS011;11962;50.838;4.430;2022-10-19T08:13:49;22.10;;;8.38;;
23567;SDS011;11962;50.838;4.430;2022-10-19T08:16:28;13.27;;;8.10;;
23567;SDS011;11962;50.838;4.430;2022-10-19T08:19:03;20.40;;;9.23;;
23567;SDS011;11962;50.838;4.430;2022-10-19T08:24:39;15.10;;;8.18;;
23567;SDS011;11962;50.838;4.430;2022-10-19T08:27:04;16.52;;;8.50;;
23567;SDS011;11962;50.838;4.430;2022-10-19T08:29:30;16.63;;;8.65;;
23567;SDS011;11962;50.838;4.430;2022-10-19T08:31:55;18.77;;;7.85;;
23567;SDS011;11962;50.838;4.430;2022-10-19T08:34:21;18.92;;;7.75;;
23567;SDS011;11962;50.838;4.430;2022-10-19T08:36:53;15.23;;;7.15;;
23567;SDS011;11962;50.838;4.430;2022-10-19T08:39:18;13.95;;;7.03;;
23567;SDS011;11962;50.838;4.430;2022-10-19T08:42:01;17.80;;;7.68;;
23567;SDS011;11962;50.838;4.430;2022-10-19T08:47:36;12.02;;;6.35;;
23567;SDS011;11962;50.838;4.430;2022-10-19T08:58:22;13.75;;;5.50;;
23567;SDS011;11962;50.838;4.430;2022-10-19T09:01:02;15.45;;;5.85;;
23567;SDS011;11962;50.838;4.430;2022-10-19T09:03:58;13.55;;;6.25;;
23567;SDS011;11962;50.838;4.430;2022-10-19T09:09:07;12.90;;;5.53;;
23567;SDS011;11962;50.838;4.430;2022-10-19T09:11:37;15.60;;;5.80;;
23567;SDS011;11962;50.838;4.430;2022-10-19T09:14:29;11.93;;;5.90;;
23567;SDS011;11962;50.838;4.430;2022-10-19T09:17:01;13.02;;;5.43;;
23567;SDS011;11962;50.838;4.430;2022-10-19T09:19:30;13.15;;;5.00;;
23567;SDS011;11962;50.838;4.430;2022-10-19T09:21:57;12.30;;;5.88;;
23567;SDS011;11962;50.838;4.430;2022-10-19T09:24:47;12.68;;;5.20;;
23567;SDS011;11962;50.838;4.430;2022-10-19T09:27:27;10.98;;;5.32;;
23567;SDS011;11962;50.838;4.430;2022-10-19T09:30:00;19.13;;;5.95;;
23567;SDS011;11962;50.838;4.430;2022-10-19T09:35:03;10.48;;;5.57;;
23567;SDS011;11962;50.838;4.430;2022-10-19T09:37:32;13.80;;;6.55;;
23567;SDS011;11962;50.838;4.430;2022-10-19T09:40:04;14.85;;;5.82;;
23567;SDS011;11962;50.838;4.430;2022-10-19T09:42:32;15.27;;;6.35;;
23567;SDS011;11962;50.838;4.430;2022-10-19T09:47:33;12.63;;;6.60;;
23567;SDS011;11962;50.838;4.430;2022-10-19T09:53:35;16.08;;;8.13;;
23567;SDS011;11962;50.838;4.430;2022-10-19T09:55:42;14.02;;;6.82;;
23567;SDS011;11962;50.838;4.430;2022-10-19T10:00:43;14.68;;;6.80;;
23567;SDS011;11962;50.838;4.430;2022-10-19T10:03:22;14.48;;;6.88;;
23567;SDS011;11962;50.838;4.430;2022-10-19T10:06:12;18.30;;;6.95;;
23567;SDS011;11962;50.838;4.430;2022-10-19T10:08:49;17.38;;;6.57;;
23567;SDS011;11962;50.838;4.430;2022-10-19T10:13:49;13.07;;;6.60;;
23567;SDS011;11962;50.838;4.430;2022-10-19T10:16:17;15.90;;;7.00;;
23567;SDS011;11962;50.838;4.430;2022-10-19T10:21:28;15.43;;;7.22;;
23567;SDS011;11962;50.838;4.430;2022-10-19T10:26:51;16.55;;;7.78;;
23567;SDS011;11962;50.838;4.430;2022-10-19T10:31:51;16.13;;;6.90;;
23567;SDS011;11962;50.838;4.430;2022-10-19T10:37:03;13.07;;;6.63;;
23567;SDS011;11962;50.838;4.430;2022-10-19T10:42:26;15.77;;;6.97;;
23567;SDS011;11962;50.838;4.430;2022-10-19T10:47:49;15.02;;;6.80;;
23567;SDS011;11962;50.838;4.430;2022-10-19T10:56:19;13.35;;;6.95;;
23567;SDS011;11962;50.838;4.430;2022-10-19T10:59:01;15.48;;;6.88;;
23567;SDS011;11962;50.838;4.430;2022-10-19T11:01:36;12.77;;;6.93;;
23567;SDS011;11962;50.838;4.430;2022-10-19T11:04:19;13.40;;;7.70;;
23567;SDS011;11962;50.838;4.430;2022-10-19T11:06:52;15.87;;;7.33;;
23567;SDS011;11962;50.838;4.430;2022-10-19T11:09:28;13.70;;;7.60;;
23567;SDS011;11962;50.838;4.430;2022-10-19T11:12:00;17.27;;;8.07;;
23567;SDS011;11962;50.838;4.430;2022-10-19T11:17:17;18.90;;;7.90;;
23567;SDS011;11962;50.838;4.430;2022-10-19T11:19:47;13.65;;;6.68;;
23567;SDS011;11962;50.838;4.430;2022-10-19T11:35:51;14.85;;;7.70;;
23567;SDS011;11962;50.838;4.430;2022-10-19T11:47:13;18.25;;;8.10;;
23567;SDS011;11962;50.838;4.430;2022-10-19T11:49:54;14.98;;;7.95;;
23567;SDS011;11962;50.838;4.430;2022-10-19T11:55:26;19.85;;;7.85;;
23567;SDS011;11962;50.838;4.430;2022-10-19T12:01:10;13.82;;;8.05;;
23567;SDS011;11962;50.838;4.430;2022-10-19T12:04:11;18.85;;;8.05;;
23567;SDS011;11962;50.838;4.430;2022-10-19T12:12:22;16.60;;;8.25;;
23567;SDS011;11962;50.838;4.430;2022-10-19T12:14:56;15.95;;;8.30;;
23567;SDS011;11962;50.838;4.430;2022-10-19T12:17:31;17.95;;;8.13;;
23567;SDS011;11962;50.838;4.430;2022-10-19T12:20:04;17.35;;;8.38;;
23567;SDS011;11962;50.838;4.430;2022-10-19T12:22:40;19.50;;;9.18;;
23567;SDS011;11962;50.838;4.430;2022-10-19T12:25:13;18.10;;;7.63;;
23567;SDS011;11962;50.838;4.430;2022-10-19T12:27:40;17.73;;;8.18;;
23567;SDS011;11962;50.838;4.430;2022-10-19T12:35:49;19.77;;;7.97;;
23567;SDS011;11962;50.838;4.430;2022-10-19T12:41:12;23.23;;;8.05;;
23567;SDS011;11962;50.838;4.430;2022-10-19T12:43:55;16.08;;;8.20;;
23567;SDS011;11962;50.838;4.430;2022-10-19T12:51:55;17.73;;;8.40;;
23567;SDS011;11962;50.838;4.430;2022-10-19T12:54:23;17.38;;;8.80;;
23567;SDS011;11962;50.838;4.430;2022-10-19T12:56:51;16.95;;;8.13;;
23567;SDS011;11962;50.838;4.430;2022-10-19T12:59:21;14.50;;;7.97;;
23567;SDS011;11962;50.838;4.430;2022-10-19T13:01:53;18.02;;;8.32;;
23567;SDS011;11962;50.838;4.430;2022-10-19T13:04:27;18.33;;;7.72;;
23567;SDS011;11962;50.838;4.430;2022-10-19T13:09:22;15.45;;;7.30;;
23567;SDS011;11962;50.838;4.430;2022-10-19T13:14:48;15.32;;;7.40;;
23567;SDS011;11962;50.838;4.430;2022-10-19T13:25:21;13.75;;;6.70;;
23567;SDS011;11962;50.838;4.430;2022-10-19T13:28:01;14.32;;;6.95;;
23567;SDS011;11962;50.838;4.430;2022-10-19T13:38:28;13.70;;;5.90;;
23567;SDS011;11962;50.838;4.430;2022-10-19T13:49:17;29.55;;;6.70;;
23567;SDS011;11962;50.838;4.430;2022-10-19T13:54:40;14.57;;;6.93;;
23567;SDS011;11962;50.838;4.430;2022-10-19T13:57:23;12.20;;;6.67;;
23567;SDS011;11962;50.838;4.430;2022-10-19T14:11:14;14.50;;;7.25;;
23567;SDS011;11962;50.838;4.430;2022-10-19T14:13:45;13.82;;;6.53;;
23567;SDS011;11962;50.838;4.430;2022-10-19T14:16:32;12.77;;;6.47;;
23567;SDS011;11962;50.838;4.430;2022-10-19T14:18:59;14.60;;;6.47;;
23567;SDS011;11962;50.838;4.430;2022-10-19T14:21:31;14.82;;;6.40;;
23567;SDS011;11962;50.838;4.430;2022-10-19T14:23:58;16.95;;;6.63;;
23567;SDS011;11962;50.838;4.430;2022-10-19T14:26:29;15.65;;;6.82;;
23567;SDS011;11962;50.838;4.430;2022-10-19T14:28:56;14.93;;;7.45;;
23567;SDS011;11962;50.838;4.430;2022-10-19T14:33:52;14.57;;;7.03;;
23567;SDS011;11962;50.838;4.430;2022-10-19T14:36:22;14.88;;;6.57;;
23567;SDS011;11962;50.838;4.430;2022-10-19T14:39:00;16.33;;;6.82;;
23567;SDS011;11962;50.838;4.430;2022-10-19T14:43:52;12.90;;;7.68;;
23567;SDS011;11962;50.838;4.430;2022-10-19T14:46:19;15.68;;;8.85;;
23567;SDS011;11962;50.838;4.430;2022-10-19T14:48:48;14.60;;;7.82;;
23567;SDS011;11962;50.838;4.430;2022-10-19T14:54:00;15.55;;;7.75;;
23567;SDS011;11962;50.838;4.430;2022-10-19T14:58:58;17.13;;;8.57;;
23567;SDS011;11962;50.838;4.430;2022-10-19T15:01:39;16.92;;;8.65;;
23567;SDS011;11962;50.838;4.430;2022-10-19T15:04:05;17.35;;;9.20;;
23567;SDS011;11962;50.838;4.430;2022-10-19T15:06:31;15.98;;;9.10;;
23567;SDS011;11962;50.838;4.430;2022-10-19T15:09:06;13.73;;;8.75;;
23567;SDS011;11962;50.838;4.430;2022-10-19T15:11:43;15.20;;;9.00;;
23567;SDS011;11962;50.838;4.430;2022-10-19T15:14:18;19.83;;;8.95;;
23567;SDS011;11962;50.838;4.430;2022-10-19T15:16:51;17.00;;;9.45;;
23567;SDS011;11962;50.838;4.430;2022-10-19T15:19:18;19.85;;;10.32;;
23567;SDS011;11962;50.838;4.430;2022-10-19T15:27:32;15.55;;;9.70;;
23567;SDS011;11962;50.838;4.430;2022-10-19T15:30:04;16.73;;;10.75;;
23567;SDS011;11962;50.838;4.430;2022-10-19T15:32:42;17.15;;;10.77;;
23567;SDS011;11962;50.838;4.430;2022-10-19T15:40:39;19.15;;;11.25;;
23567;SDS011;11962;50.838;4.430;2022-10-19T15:46:28;19.45;;;11.35;;
23567;SDS011;11962;50.838;4.430;2022-10-19T15:48:58;20.65;;;11.90;;
23567;SDS011;11962;50.838;4.430;2022-10-19T15:53:53;19.50;;;11.93;;
23567;SDS011;11962;50.838;4.430;2022-10-19T15:56:24;20.33;;;12.73;;
23567;SDS011;11962;50.838;4.430;2022-10-19T15:58:52;20.35;;;12.50;;
23567;SDS011;11962;50.838;4.430;2022-10-19T16:03:46;20.27;;;12.70;;
23567;SDS011;11962;50.838;4.430;2022-10-19T16:06:13;20.23;;;12.60;;
23567;SDS011;11962;50.838;4.430;2022-10-19T16:08:41;21.30;;;12.48;;
23567;SDS011;11962;50.838;4.430;2022-10-19T16:11:10;28.63;;;14.57;;
23567;SDS011;11962;50.838;4.430;2022-10-19T16:13:55;23.25;;;14.02;;
23567;SDS011;11962;50.838;4.430;2022-10-19T16:18:48;25.88;;;14.13;;
23567;SDS011;11962;50.838;4.430;2022-10-19T16:21:14;21.33;;;14.15;;
23567;SDS011;11962;50.838;4.430;2022-10-19T16:23:39;19.77;;;13.75;;
23567;SDS011;11962;50.838;4.430;2022-10-19T16:26:05;23.77;;;14.10;;
23567;SDS011;11962;50.838;4.430;2022-10-19T16:28:32;24.67;;;14.32;;
23567;SDS011;11962;50.838;4.430;2022-10-19T16:30:58;27.05;;;14.55;;
23567;SDS011;11962;50.838;4.430;2022-10-19T16:33:23;22.95;;;15.27;;
23567;SDS011;11962;50.838;4.430;2022-10-19T16:35:49;21.35;;;14.73;;
23567;SDS011;11962;50.838;4.430;2022-10-19T16:38:14;24.33;;;14.30;;
23567;SDS011;11962;50.838;4.430;2022-10-19T16:40:40;28.85;;;15.25;;
23567;SDS011;11962;50.838;4.430;2022-10-19T16:45:49;23.63;;;14.80;;
23567;SDS011;11962;50.838;4.430;2022-10-19T16:48:15;20.75;;;14.40;;
23567;SDS011;11962;50.838;4.430;2022-10-19T16:50:41;25.10;;;15.52;;
23567;SDS011;11962;50.838;4.430;2022-10-19T16:53:07;24.75;;;16.08;;
23567;SDS011;11962;50.838;4.430;2022-10-19T16:55:34;26.42;;;15.52;;
23567;SDS011;11962;50.838;4.430;2022-10-19T16:58:10;23.35;;;15.60;;
23567;SDS011;11962;50.838;4.430;2022-10-19T17:00:35;25.42;;;15.88;;
23567;SDS011;11962;50.838;4.430;2022-10-19T17:03:01;27.40;;;15.25;;
23567;SDS011;11962;50.838;4.430;2022-10-19T17:05:27;24.98;;;15.43;;
23567;SDS011;11962;50.838;4.430;2022-10-19T17:07:52;26.67;;;15.85;;
23567;SDS011;11962;50.838;4.430;2022-10-19T17:10:18;25.75;;;15.70;;
23567;SDS011;11962;50.838;4.430;2022-10-19T17:16:06;29.02;;;15.95;;
23567;SDS011;11962;50.838;4.430;2022-10-19T17:18:32;29.42;;;16.90;;
23567;SDS011;11962;50.838;4.430;2022-10-19T17:21:03;25.60;;;15.80;;
23567;SDS011;11962;50.838;4.430;2022-10-19T17:23:33;27.83;;;15.63;;
23567;SDS011;11962;50.838;4.430;2022-10-19T17:25:59;26.90;;;16.15;;
23567;SDS011;11962;50.838;4.430;2022-10-19T17:28:40;24.48;;;15.50;;
23567;SDS011;11962;50.838;4.430;2022-10-19T17:31:08;23.23;;;15.88;;
23567;SDS011;11962;50.838;4.430;2022-10-19T17:33:36;24.10;;;15.77;;
23567;SDS011;11962;50.838;4.430;2022-10-19T17:36:03;23.90;;;16.13;;
23567;SDS011;11962;50.838;4.430;2022-10-19T17:38:37;22.83;;;15.85;;
23567;SDS011;11962;50.838;4.430;2022-10-19T17:41:06;25.38;;;15.23;;
23567;SDS011;11962;50.838;4.430;2022-10-19T17:43:33;19.80;;;14.80;;
23567;SDS011;11962;50.838;4.430;2022-10-19T17:46:01;25.40;;;15.35;;
23567;SDS011;11962;50.838;4.430;2022-10-19T17:50:59;26.48;;;14.93;;
23567;SDS011;11962;50.838;4.430;2022-10-19T17:53:26;24.48;;;14.95;;
23567;SDS011;11962;50.838;4.430;2022-10-19T17:55:52;26.42;;;14.77;;
23567;SDS011;11962;50.838;4.430;2022-10-19T17:58:21;23.83;;;15.43;;
23567;SDS011;11962;50.838;4.430;2022-10-19T18:00:51;25.20;;;15.85;;
23567;SDS011;11962;50.838;4.430;2022-10-19T18:03:18;25.58;;;15.63;;
23567;SDS011;11962;50.838;4.430;2022-10-19T18:05:43;26.15;;;15.15;;
23567;SDS011;11962;50.838;4.430;2022-10-19T18:08:09;26.67;;;15.68;;
23567;SDS011;11962;50.838;4.430;2022-10-19T18:10:35;22.80;;;15.13;;
23567;SDS011;11962;50.838;4.430;2022-10-19T18:13:02;25.92;;;13.82;;
23567;SDS011;11962;50.838;4.430;2022-10-19T18:15:28;29.63;;;14.60;;
23567;SDS011;11962;50.838;4.430;2022-10-19T18:17:54;23.73;;;13.52;;
23567;SDS011;11962;50.838;4.430;2022-10-19T18:20:19;23.33;;;14.50;;
23567;SDS011;11962;50.838;4.430;2022-10-19T18:22:45;22.70;;;14.05;;
23567;SDS011;11962;50.838;4.430;2022-10-19T18:25:11;24.33;;;14.35;;
23567;SDS011;11962;50.838;4.430;2022-10-19T18:27:36;24.05;;;14.00;;
23567;SDS011;11962;50.838;4.430;2022-10-19T18:30:07;23.42;;;13.60;;
23567;SDS011;11962;50.838;4.430;2022-10-19T18:32:33;21.15;;;13.50;;
23567;SDS011;11962;50.838;4.430;2022-10-19T18:34:59;29.10;;;14.00;;
23567;SDS011;11962;50.838;4.430;2022-10-19T18:37:25;20.92;;;13.07;;
23567;SDS011;11962;50.838;4.430;2022-10-19T18:39:51;28.27;;;14.45;;
23567;SDS011;11962;50.838;4.430;2022-10-19T18:42:16;24.27;;;13.55;;
23567;SDS011;11962;50.838;4.430;2022-10-19T18:44:42;25.52;;;14.25;;
23567;SDS011;11962;50.838;4.430;2022-10-19T18:47:08;24.45;;;14.43;;
23567;SDS011;11962;50.838;4.430;2022-10-19T18:49:34;22.35;;;14.30;;
23567;SDS011;11962;50.838;4.430;2022-10-19T18:51:59;20.88;;;15.27;;
23567;SDS011;11962;50.838;4.430;2022-10-19T18:54:25;24.58;;;16.33;;